createdAt,value
2023-05-14T00:00:59.484Z,7.46
2023-05-14T00:03:26.592Z,7.36
2023-05-14T00:05:53.612Z,7.22
2023-05-14T00:08:20.637Z,7.13
2023-05-14T00:10:47.603Z,7.08
2023-05-14T00:13:14.502Z,7.05
2023-05-14T00:15:41.544Z,7.03
2023-05-14T00:18:12.341Z,7.00
2023-05-14T00:20:39.504Z,6.97
2023-05-14T00:23:06.501Z,6.98
2023-05-14T00:25:33.467Z,6.98
2023-05-14T00:28:00.430Z,6.95
2023-05-14T00:30:27.332Z,6.91
2023-05-14T00:32:54.360Z,6.89
2023-05-14T00:35:21.716Z,6.92
2023-05-14T00:37:48.722Z,6.94
2023-05-14T00:40:15.911Z,6.96
2023-05-14T00:42:42.831Z,6.99
2023-05-14T00:45:10.485Z,7.02
2023-05-14T00:47:39.533Z,7.00
2023-05-14T00:50:07.309Z,6.97
2023-05-14T00:52:34.241Z,6.99
2023-05-14T00:55:03.398Z,7.04
2023-05-14T00:57:30.601Z,7.05
2023-05-14T00:59:58.369Z,7.06
2023-05-14T01:02:25.428Z,7.05
2023-05-14T01:04:52.468Z,7.03
2023-05-14T01:07:40.574Z,7.01
2023-05-14T01:10:32.993Z,7.02
2023-05-14T01:13:44.690Z,7.04
2023-05-14T01:16:13.545Z,7.04
2023-05-14T01:18:41.668Z,7.06
2023-05-14T01:21:42.950Z,7.07
2023-05-14T01:24:09.960Z,7.05
2023-05-14T01:26:37.068Z,6.98
2023-05-14T01:29:20.811Z,6.90
2023-05-14T01:31:48.067Z,6.83
2023-05-14T01:34:15.175Z,6.80
2023-05-14T01:36:42.390Z,6.77
2023-05-14T01:39:09.980Z,6.72
2023-05-14T01:41:37.585Z,6.70
2023-05-14T01:44:04.568Z,6.71
2023-05-14T01:46:32.966Z,6.71
2023-05-14T01:49:00.486Z,6.68
2023-05-14T01:51:27.549Z,6.62
2023-05-14T01:53:54.560Z,6.60
2023-05-14T01:56:23.678Z,6.61
2023-05-14T01:58:50.671Z,6.63
2023-05-14T02:01:17.711Z,6.57
2023-05-14T02:03:44.624Z,6.48
2023-05-14T02:06:11.642Z,6.38
2023-05-14T02:08:38.695Z,6.32
2023-05-14T02:11:05.746Z,6.33
2023-05-14T02:13:32.635Z,6.36
2023-05-14T02:15:59.619Z,6.36
2023-05-14T02:18:26.603Z,6.32
2023-05-14T02:20:53.570Z,6.27
2023-05-14T02:23:25.685Z,6.26
2023-05-14T02:25:58.247Z,6.23
2023-05-14T02:28:25.260Z,6.24
2023-05-14T02:30:52.173Z,6.24
2023-05-14T02:33:19.337Z,6.22
2023-05-14T02:35:46.343Z,6.21
2023-05-14T02:38:13.624Z,6.25
2023-05-14T02:40:40.507Z,6.32
2023-05-14T02:43:07.433Z,6.35
2023-05-14T02:45:35.895Z,6.36
2023-05-14T02:48:02.951Z,6.38
2023-05-14T02:50:30.972Z,6.44
2023-05-14T02:52:57.883Z,6.50
2023-05-14T02:55:26.608Z,6.56
2023-05-14T02:57:53.556Z,6.59
2023-05-14T03:00:20.750Z,6.67
2023-05-14T03:02:48.671Z,6.75
2023-05-14T03:05:16.138Z,6.82
2023-05-14T03:07:43.286Z,6.87
2023-05-14T03:10:10.695Z,6.92
2023-05-14T03:12:37.696Z,6.93
2023-05-14T03:15:05.221Z,6.95
2023-05-14T03:17:32.217Z,6.98
2023-05-14T03:19:59.241Z,7.00
2023-05-14T03:22:27.077Z,7.03
2023-05-14T03:24:54.088Z,7.11
2023-05-14T03:27:21.106Z,7.17
2023-05-14T03:29:47.982Z,7.24
2023-05-14T03:32:15.133Z,7.36
2023-05-14T03:34:42.441Z,7.47
2023-05-14T03:37:09.374Z,7.60
2023-05-14T03:39:36.622Z,7.73
2023-05-14T03:42:05.411Z,7.89
2023-05-14T03:44:32.270Z,8.05
2023-05-14T03:46:59.336Z,8.21
2023-05-14T03:49:26.514Z,8.34
2023-05-14T03:51:53.486Z,8.45
2023-05-14T03:54:20.535Z,8.58
2023-05-14T03:56:47.645Z,8.71
2023-05-14T03:59:14.615Z,8.84
2023-05-14T04:01:41.591Z,8.95
2023-05-14T04:04:08.655Z,9.08
2023-05-14T04:06:35.703Z,9.19
2023-05-14T04:09:03.548Z,9.29
2023-05-14T04:11:30.599Z,9.40
2023-05-14T04:13:58.289Z,9.54
2023-05-14T04:16:25.239Z,9.66
2023-05-14T04:18:52.263Z,9.78
2023-05-14T04:21:19.253Z,9.89
2023-05-14T04:23:46.264Z,10.01
2023-05-14T04:26:13.282Z,10.14
2023-05-14T04:28:40.709Z,10.32
2023-05-14T04:31:07.739Z,10.49
2023-05-14T04:33:34.684Z,10.65
2023-05-14T04:36:02.190Z,10.80
2023-05-14T04:38:29.295Z,10.97
2023-05-14T04:40:57.029Z,11.12
2023-05-14T04:43:24.038Z,11.28
2023-05-14T04:45:52.529Z,11.44
2023-05-14T04:48:19.673Z,11.60
2023-05-14T04:50:46.653Z,11.76
2023-05-14T04:53:13.516Z,11.93
2023-05-14T04:55:41.478Z,12.10
2023-05-14T04:58:08.452Z,12.28
2023-05-14T05:00:35.434Z,12.45
2023-05-14T05:03:02.439Z,12.62
2023-05-14T05:05:29.415Z,12.81
2023-05-14T05:07:56.457Z,13.01
2023-05-14T05:10:23.888Z,13.20
2023-05-14T05:12:51.005Z,13.41
2023-05-14T05:15:18.063Z,13.62
2023-05-14T05:17:45.026Z,13.84
2023-05-14T05:20:12.841Z,14.05
2023-05-14T05:22:39.871Z,14.26
2023-05-14T05:25:08.231Z,14.47
2023-05-14T05:27:35.492Z,14.68
2023-05-14T05:30:02.560Z,14.88
2023-05-14T05:32:29.856Z,15.07
2023-05-14T05:34:57.087Z,15.26
2023-05-14T05:37:24.062Z,15.45
2023-05-14T05:39:51.009Z,15.64
2023-05-14T05:42:17.905Z,15.82
2023-05-14T05:44:44.934Z,16.00
2023-05-14T05:47:11.950Z,16.19
2023-05-14T05:49:38.870Z,16.37
2023-05-14T05:52:05.874Z,16.55
2023-05-14T05:54:32.960Z,16.72
2023-05-14T05:57:00.077Z,16.91
2023-05-14T05:59:27.133Z,17.08
2023-05-14T06:01:54.231Z,17.25
2023-05-14T06:04:21.135Z,17.41
2023-05-14T06:06:48.077Z,17.59
2023-05-14T06:09:15.084Z,17.76
2023-05-14T06:11:42.031Z,17.91
2023-05-14T06:14:09.107Z,18.08
2023-05-14T06:16:36.093Z,18.25
2023-05-14T06:19:03.171Z,18.41
2023-05-14T06:21:30.125Z,18.59
2023-05-14T06:23:57.203Z,18.76
2023-05-14T06:26:24.058Z,18.91
2023-05-14T06:28:51.086Z,19.07
2023-05-14T06:31:19.040Z,19.22
2023-05-14T06:33:46.106Z,19.38
2023-05-14T06:36:13.121Z,19.53
2023-05-14T06:38:40.111Z,19.65
2023-05-14T06:41:07.079Z,19.80
2023-05-14T06:43:34.028Z,19.92
2023-05-14T06:46:01.518Z,20.02
2023-05-14T06:48:29.585Z,20.09
2023-05-14T06:50:56.618Z,20.15
2023-05-14T06:53:23.648Z,20.20
2023-05-14T06:55:50.917Z,20.28
2023-05-14T06:58:17.903Z,20.41
2023-05-14T07:00:44.890Z,20.52
2023-05-14T07:03:11.780Z,20.61
2023-05-14T07:05:40.701Z,20.70
2023-05-14T07:08:07.620Z,20.82
2023-05-14T07:10:34.565Z,20.91
2023-05-14T07:13:01.520Z,21.00
2023-05-14T07:15:28.393Z,21.06
2023-05-14T07:17:55.471Z,21.12
2023-05-14T07:20:24.394Z,21.21
2023-05-14T07:22:52.373Z,21.31
2023-05-14T07:25:19.286Z,21.41
2023-05-14T07:27:46.268Z,21.55
2023-05-14T07:30:13.452Z,21.71
2023-05-14T07:32:40.694Z,21.83
2023-05-14T07:35:08.457Z,21.94
2023-05-14T07:37:35.392Z,22.05
2023-05-14T07:40:02.386Z,22.11
2023-05-14T07:42:36.783Z,22.14
2023-05-14T07:45:05.379Z,22.17
2023-05-14T07:47:32.452Z,22.19
2023-05-14T07:49:59.666Z,22.27
2023-05-14T07:52:26.601Z,22.38
2023-05-14T07:54:53.597Z,22.47
2023-05-14T07:57:20.549Z,22.54
2023-05-14T07:59:48.148Z,22.64
2023-05-14T08:02:17.100Z,22.80
2023-05-14T08:04:44.647Z,22.98
2023-05-14T08:07:11.809Z,23.15
2023-05-14T08:09:38.829Z,23.29
2023-05-14T08:12:06.340Z,23.40
2023-05-14T08:14:33.388Z,23.52
2023-05-14T08:17:00.516Z,23.66
2023-05-14T08:19:28.041Z,23.77
2023-05-14T08:21:54.946Z,23.77
2023-05-14T08:24:21.923Z,23.72
2023-05-14T08:26:48.928Z,23.69
2023-05-14T08:29:16.678Z,23.70
2023-05-14T08:31:44.114Z,23.70
2023-05-14T08:34:11.140Z,23.70
2023-05-14T08:36:38.871Z,23.75
2023-05-14T08:39:07.982Z,23.78
2023-05-14T08:41:35.127Z,23.85
2023-05-14T08:44:09.515Z,23.89
2023-05-14T08:46:37.081Z,23.83
2023-05-14T08:49:40.990Z,23.71
2023-05-14T08:52:11.584Z,23.52
2023-05-14T08:54:38.997Z,23.36
2023-05-14T08:57:06.327Z,23.31
2023-05-14T08:59:33.213Z,23.40
2023-05-14T09:02:02.146Z,23.59
2023-05-14T09:04:29.770Z,23.72
2023-05-14T09:06:56.728Z,23.74
2023-05-14T09:09:23.684Z,23.57
2023-05-14T09:11:51.612Z,23.43
2023-05-14T09:14:18.663Z,23.41
2023-05-14T09:16:46.104Z,23.40
2023-05-14T09:19:13.812Z,23.36
2023-05-14T09:21:41.052Z,23.42
2023-05-14T09:24:08.115Z,23.60
2023-05-14T09:26:35.353Z,23.77
2023-05-14T09:29:02.677Z,23.98
2023-05-14T09:31:31.063Z,24.20
2023-05-14T09:33:58.425Z,24.35
2023-05-14T09:36:27.203Z,24.44
2023-05-14T09:38:56.933Z,24.53
2023-05-14T09:41:24.446Z,24.60
2023-05-14T09:43:51.698Z,24.60
2023-05-14T09:46:18.562Z,24.48
2023-05-14T09:48:46.156Z,24.32
2023-05-14T09:51:13.324Z,24.14
2023-05-14T09:53:41.359Z,23.98
2023-05-14T09:56:08.386Z,23.85
2023-05-14T09:58:35.295Z,23.80
2023-05-14T10:01:02.711Z,23.79
2023-05-14T10:03:29.967Z,23.75
2023-05-14T10:06:00.037Z,23.75
2023-05-14T10:08:28.472Z,23.76
2023-05-14T10:10:56.161Z,23.73
2023-05-14T10:13:24.686Z,23.72
2023-05-14T10:16:13.967Z,23.71
2023-05-14T10:18:43.152Z,23.72
2023-05-14T10:21:10.166Z,23.76
2023-05-14T10:23:40.743Z,23.78
2023-05-14T10:26:08.364Z,23.82
2023-05-14T10:28:35.553Z,23.89
2023-05-14T10:31:02.611Z,23.99
2023-05-14T10:33:29.743Z,24.08
2023-05-14T10:36:07.349Z,24.23
2023-05-14T10:38:37.557Z,24.58
2023-05-14T10:41:12.206Z,25.01
2023-05-14T10:43:40.171Z,25.43
2023-05-14T10:46:07.780Z,25.69
2023-05-14T10:48:34.826Z,25.86
2023-05-14T10:51:02.640Z,25.76
2023-05-14T10:53:37.274Z,25.62
2023-05-14T10:56:13.963Z,25.37
2023-05-14T10:58:43.043Z,25.37
2023-05-14T11:01:11.171Z,25.59
2023-05-14T11:03:43.920Z,25.78
2023-05-14T11:06:11.745Z,25.97
2023-05-14T11:08:38.972Z,26.06
2023-05-14T11:11:09.211Z,26.06
2023-05-14T11:13:36.208Z,26.00
2023-05-14T11:16:12.018Z,25.98
2023-05-14T11:18:49.206Z,26.03
2023-05-14T11:21:17.479Z,26.03
2023-05-14T11:23:46.692Z,25.91
2023-05-14T11:26:13.784Z,25.55
2023-05-14T11:28:40.902Z,25.10
2023-05-14T11:31:07.917Z,24.55
2023-05-14T11:33:34.895Z,23.98
2023-05-14T11:36:02.217Z,23.50
2023-05-14T11:38:29.209Z,23.22
2023-05-14T11:40:57.085Z,23.11
2023-05-14T11:43:24.149Z,23.04
2023-05-14T11:45:52.552Z,22.99
2023-05-14T11:48:20.540Z,22.90
2023-05-14T11:50:48.566Z,22.84
2023-05-14T11:53:29.581Z,22.82
2023-05-14T11:55:58.062Z,22.82
2023-05-14T11:58:25.063Z,22.85
2023-05-14T12:00:52.856Z,22.90
2023-05-14T12:03:25.725Z,23.01
2023-05-14T12:05:59.772Z,23.23
2023-05-14T12:08:28.272Z,23.57
2023-05-14T12:10:55.640Z,23.89
2023-05-14T12:13:22.869Z,24.07
2023-05-14T12:15:57.064Z,24.11
2023-05-14T12:18:33.827Z,24.08
2023-05-14T12:21:04.501Z,24.03
2023-05-14T12:23:31.878Z,24.08
2023-05-14T12:26:03.684Z,24.13
2023-05-14T12:28:31.182Z,24.19
2023-05-14T12:30:58.641Z,24.18
2023-05-14T12:33:28.822Z,24.12
2023-05-14T12:36:09.937Z,24.15
2023-05-14T12:38:47.155Z,24.30
2023-05-14T12:41:14.036Z,24.33
2023-05-14T12:43:43.220Z,24.37
2023-05-14T12:46:10.752Z,24.53
2023-05-14T12:48:37.680Z,24.75
2023-05-14T12:51:04.688Z,24.77
2023-05-14T12:53:31.612Z,24.63
2023-05-14T12:55:58.776Z,24.50
2023-05-14T12:58:25.654Z,24.34
2023-05-14T13:00:52.546Z,24.13
2023-05-14T13:03:19.679Z,23.95
2023-05-14T13:05:46.708Z,23.81
2023-05-14T13:08:17.894Z,23.74
2023-05-14T13:10:45.045Z,23.65
2023-05-14T13:13:12.150Z,23.54
2023-05-14T13:15:39.168Z,23.45
2023-05-14T13:18:06.290Z,23.36
2023-05-14T13:20:33.916Z,23.24
2023-05-14T13:23:00.786Z,23.18
2023-05-14T13:25:27.761Z,23.23
2023-05-14T13:27:55.241Z,23.42
2023-05-14T13:30:22.279Z,23.64
2023-05-14T13:32:49.264Z,23.88
2023-05-14T13:35:16.314Z,24.14
2023-05-14T13:37:43.965Z,24.44
2023-05-14T13:40:11.352Z,24.70
2023-05-14T13:42:39.949Z,24.85
2023-05-14T13:45:07.523Z,24.83
2023-05-14T13:47:34.514Z,24.74
2023-05-14T13:50:01.481Z,24.68
2023-05-14T13:52:28.358Z,24.65
2023-05-14T13:54:55.402Z,24.68
2023-05-14T13:57:23.245Z,24.82
2023-05-14T13:59:50.153Z,25.00
2023-05-14T14:02:17.800Z,25.02
2023-05-14T14:04:44.933Z,25.02
2023-05-14T14:07:11.922Z,24.96
2023-05-14T14:09:39.042Z,24.85
2023-05-14T14:12:06.752Z,24.74
2023-05-14T14:14:33.865Z,24.64
2023-05-14T14:17:00.879Z,24.53
2023-05-14T14:19:27.897Z,24.46
2023-05-14T14:21:54.902Z,24.44
2023-05-14T14:24:21.896Z,24.46
2023-05-14T14:26:48.732Z,24.49
2023-05-14T14:29:15.726Z,24.51
2023-05-14T14:31:43.662Z,24.61
2023-05-14T14:34:10.911Z,24.72
2023-05-14T14:36:37.884Z,24.76
2023-05-14T14:39:04.952Z,24.73
2023-05-14T14:41:31.911Z,24.66
2023-05-14T14:43:58.862Z,24.64
2023-05-14T14:46:25.983Z,24.71
2023-05-14T14:48:53.136Z,24.74
2023-05-14T14:51:20.007Z,24.71
2023-05-14T14:53:47.025Z,24.71
2023-05-14T14:56:13.980Z,24.68
2023-05-14T14:58:40.993Z,24.64
2023-05-14T15:01:07.946Z,24.61
2023-05-14T15:03:35.368Z,24.57
2023-05-14T15:06:02.448Z,24.52
2023-05-14T15:08:29.428Z,24.51
2023-05-14T15:10:56.659Z,24.48
2023-05-14T15:13:24.763Z,24.45
2023-05-14T15:15:52.599Z,24.40
2023-05-14T15:18:19.776Z,24.34
2023-05-14T15:20:46.854Z,24.29
2023-05-14T15:23:13.874Z,24.26
2023-05-14T15:25:40.777Z,24.20
2023-05-14T15:28:07.806Z,24.14
2023-05-14T15:30:34.880Z,24.07
2023-05-14T15:33:01.933Z,23.99
2023-05-14T15:35:29.049Z,23.91
2023-05-14T15:37:59.463Z,23.87
2023-05-14T15:40:27.397Z,23.88
2023-05-14T15:42:54.999Z,23.93
2023-05-14T15:45:21.962Z,23.98
2023-05-14T15:47:48.966Z,24.00
2023-05-14T15:50:15.938Z,23.91
2023-05-14T15:52:42.856Z,23.70
2023-05-14T15:55:10.410Z,23.46
2023-05-14T15:57:37.340Z,23.26
2023-05-14T16:00:13.169Z,23.11
2023-05-14T16:02:40.334Z,22.92
2023-05-14T16:05:08.440Z,22.77
2023-05-14T16:07:36.089Z,22.67
2023-05-14T16:10:03.576Z,22.59
2023-05-14T16:12:30.747Z,22.48
2023-05-14T16:14:57.804Z,22.38
2023-05-14T16:17:24.844Z,22.37
2023-05-14T16:19:53.452Z,22.37
2023-05-14T16:22:22.330Z,22.35
2023-05-14T16:24:49.246Z,22.35
2023-05-14T16:27:18.479Z,22.36
2023-05-14T16:29:45.611Z,22.36
2023-05-14T16:32:12.748Z,22.34
2023-05-14T16:34:39.982Z,22.31
2023-05-14T16:37:06.862Z,22.27
2023-05-14T16:39:33.754Z,22.26
2023-05-14T16:42:00.713Z,22.26
2023-05-14T16:44:27.725Z,22.27
2023-05-14T16:46:54.688Z,22.26
2023-05-14T16:49:22.588Z,22.24
2023-05-14T16:51:49.592Z,22.20
2023-05-14T16:54:16.751Z,22.12
2023-05-14T16:56:48.293Z,22.03
2023-05-14T16:59:15.848Z,21.93
2023-05-14T17:01:43.503Z,21.84
2023-05-14T17:04:10.611Z,21.72
2023-05-14T17:06:37.487Z,21.61
2023-05-14T17:09:04.417Z,21.52
2023-05-14T17:11:31.336Z,21.42
2023-05-14T17:13:58.264Z,21.33
2023-05-14T17:16:26.124Z,21.24
2023-05-14T17:18:53.107Z,21.13
2023-05-14T17:21:20.150Z,21.02
2023-05-14T17:23:47.157Z,20.90
2023-05-14T17:26:14.063Z,20.79
2023-05-14T17:28:41.053Z,20.67
2023-05-14T17:31:08.054Z,20.57
2023-05-14T17:33:35.021Z,20.48
2023-05-14T17:36:02.030Z,20.39
2023-05-14T17:38:29.005Z,20.30
2023-05-14T17:40:55.930Z,20.22
2023-05-14T17:43:22.798Z,20.14
2023-05-14T17:45:54.543Z,20.06
2023-05-14T17:48:23.307Z,19.99
2023-05-14T17:50:51.755Z,19.92
2023-05-14T17:53:18.803Z,19.84
2023-05-14T17:55:45.969Z,19.76
2023-05-14T17:58:14.524Z,19.68
2023-05-14T18:00:41.652Z,19.60
2023-05-14T18:03:08.720Z,19.53
2023-05-14T18:05:35.686Z,19.46
2023-05-14T18:08:02.736Z,19.38
2023-05-14T18:10:29.852Z,19.30
2023-05-14T18:12:56.911Z,19.24
2023-05-14T18:15:25.718Z,19.17
2023-05-14T18:17:53.154Z,19.10
2023-05-14T18:20:20.293Z,19.02
2023-05-14T18:22:47.191Z,18.95
2023-05-14T18:25:14.209Z,18.87
2023-05-14T18:27:44.707Z,18.81
2023-05-14T18:30:13.906Z,18.71
2023-05-14T18:32:41.851Z,18.57
2023-05-14T18:35:09.423Z,18.43
2023-05-14T18:37:36.656Z,18.29
2023-05-14T18:40:04.866Z,18.12
2023-05-14T18:42:31.753Z,17.94
2023-05-14T18:44:58.690Z,17.78
2023-05-14T18:47:25.702Z,17.64
2023-05-14T18:49:55.385Z,17.52
2023-05-14T18:52:23.155Z,17.42
2023-05-14T18:54:50.939Z,17.34
2023-05-14T18:57:17.880Z,17.27
2023-05-14T18:59:44.880Z,17.21
2023-05-14T19:02:11.956Z,17.17
2023-05-14T19:04:51.273Z,17.11
2023-05-14T19:07:19.771Z,17.00
2023-05-14T19:09:46.717Z,16.89
2023-05-14T19:12:14.108Z,16.77
2023-05-14T19:14:41.051Z,16.65
2023-05-14T19:17:07.993Z,16.52
2023-05-14T19:19:34.843Z,16.41
2023-05-14T19:22:01.761Z,16.32
2023-05-14T19:24:28.756Z,16.23
2023-05-14T19:26:56.038Z,16.15
2023-05-14T19:29:23.069Z,16.06
2023-05-14T19:31:50.163Z,15.94
2023-05-14T19:34:17.215Z,15.82
2023-05-14T19:36:44.170Z,15.65
2023-05-14T19:39:11.111Z,15.43
2023-05-14T19:41:38.136Z,15.27
2023-05-14T19:44:05.152Z,15.09
2023-05-14T19:46:32.180Z,14.90
2023-05-14T19:48:59.240Z,14.75
2023-05-14T19:51:26.340Z,14.64
2023-05-14T19:53:53.297Z,14.57
2023-05-14T19:56:20.190Z,14.50
2023-05-14T19:58:47.274Z,14.46
2023-05-14T20:01:14.790Z,14.44
2023-05-14T20:03:42.036Z,14.39
2023-05-14T20:06:09.101Z,14.32
2023-05-14T20:08:36.088Z,14.24
2023-05-14T20:11:03.450Z,14.13
2023-05-14T20:13:33.260Z,14.02
2023-05-14T20:16:00.208Z,13.89
2023-05-14T20:18:27.338Z,13.73
2023-05-14T20:20:54.943Z,13.61
2023-05-14T20:23:21.893Z,13.53
2023-05-14T20:25:48.866Z,13.43
2023-05-14T20:28:15.889Z,13.30
2023-05-14T20:30:42.918Z,13.14
2023-05-14T20:33:10.201Z,13.05
2023-05-14T20:35:37.363Z,13.01
2023-05-14T20:38:04.353Z,12.99
2023-05-14T20:40:32.834Z,12.97
2023-05-14T20:42:59.952Z,12.95
2023-05-14T20:45:27.291Z,12.91
2023-05-14T20:47:54.520Z,12.86
2023-05-14T20:50:22.696Z,12.79
2023-05-14T20:52:49.588Z,12.72
2023-05-14T20:55:16.808Z,12.67
2023-05-14T20:57:43.890Z,12.61
2023-05-14T21:00:11.413Z,12.55
2023-05-14T21:02:38.714Z,12.48
2023-05-14T21:05:06.594Z,12.43
2023-05-14T21:07:33.696Z,12.38
2023-05-14T21:10:01.848Z,12.30
2023-05-14T21:12:28.876Z,12.22
2023-05-14T21:14:56.012Z,12.14
2023-05-14T21:17:22.958Z,12.09
2023-05-14T21:19:50.114Z,12.04
2023-05-14T21:22:17.072Z,11.96
2023-05-14T21:24:44.007Z,11.89
2023-05-14T21:27:10.943Z,11.85
2023-05-14T21:29:37.898Z,11.81
2023-05-14T21:32:05.778Z,11.79
2023-05-14T21:34:32.849Z,11.77
2023-05-14T21:36:59.759Z,11.74
2023-05-14T21:39:26.664Z,11.66
2023-05-14T21:41:53.650Z,11.55
2023-05-14T21:44:21.812Z,11.43
2023-05-14T21:46:48.688Z,11.35
2023-05-14T21:49:15.568Z,11.30
2023-05-14T21:51:42.982Z,11.30
2023-05-14T21:54:09.869Z,11.29
2023-05-14T21:56:37.255Z,11.29
2023-05-14T21:59:05.035Z,11.28
2023-05-14T22:01:33.795Z,11.24
2023-05-14T22:04:05.745Z,11.22
2023-05-14T22:06:33.852Z,11.20
2023-05-14T22:09:00.743Z,11.17
2023-05-14T22:11:28.022Z,11.13
2023-05-14T22:13:54.866Z,11.08
2023-05-14T22:16:22.550Z,11.03
2023-05-14T22:18:49.685Z,10.95
2023-05-14T22:21:16.759Z,10.86
2023-05-14T22:23:43.872Z,10.81
2023-05-14T22:26:11.320Z,10.76
2023-05-14T22:28:42.882Z,10.72
2023-05-14T22:31:10.463Z,10.63
2023-05-14T22:33:37.540Z,10.53
2023-05-14T22:36:07.088Z,10.45
2023-05-14T22:38:34.291Z,10.37
2023-05-14T22:41:01.303Z,10.29
2023-05-14T22:43:28.764Z,10.23
2023-05-14T22:45:55.732Z,10.19
2023-05-14T22:48:22.648Z,10.16
2023-05-14T22:50:49.477Z,10.15
2023-05-14T22:53:16.376Z,10.12
2023-05-14T22:55:43.357Z,10.08
2023-05-14T22:58:10.401Z,10.01
2023-05-14T23:00:37.483Z,9.92
2023-05-14T23:03:04.589Z,9.81
2023-05-14T23:05:31.541Z,9.74
2023-05-14T23:07:58.443Z,9.68
2023-05-14T23:10:25.511Z,9.66
2023-05-14T23:12:52.388Z,9.65
2023-05-14T23:15:19.366Z,9.61
2023-05-14T23:17:46.437Z,9.57
2023-05-14T23:20:13.703Z,9.51
2023-05-14T23:22:40.915Z,9.48
2023-05-14T23:25:08.250Z,9.46
2023-05-14T23:27:35.515Z,9.43
2023-05-14T23:30:03.815Z,9.43
2023-05-14T23:32:30.950Z,9.43
2023-05-14T23:34:58.120Z,9.43
2023-05-14T23:37:24.994Z,9.44
2023-05-14T23:39:52.308Z,9.46
2023-05-14T23:42:19.321Z,9.49
2023-05-14T23:44:46.366Z,9.53
2023-05-14T23:47:13.349Z,9.53
2023-05-14T23:49:40.930Z,9.44
2023-05-14T23:52:07.899Z,9.35
2023-05-14T23:54:34.937Z,9.30
2023-05-14T23:57:03.382Z,9.25
2023-05-14T23:59:30.372Z,9.23
